Pine Hill, Texas
Current Conditions -  °F | °C
As of 12:15 PM on Friday 31 Oct 2014 (Local Time) from KJSO Reporting Station
Clear Clear  
Wind Chill: 66°   Ceiling: Unl
Heat Index: 66°   Visibility: 10mi
Dew Point: 42°   Wind: 12mph
Humidity: 42%   Direction: 20°NNE
Pressure: 30.26"   Gusts: 21mph
Location:  31.9649°N, 95.3036°W
Report Text: KJSO 311715Z AUTO 02010G18KT 10SM CLR 18/05 A3026 RMK AO2 T01910058
Loading
Personal Weather Stations






























Interactive Weather Map
Tropical Storm Tracking
New forecast layout! Learn more

10-Day Weather Forecast

Advertisements
Track Severe Weather on mobile